sensor_id;sensor_type;location;lat;lon;timestamp;temperature;humidity
21722;DHT22;11023;48.274;7.794;2023-08-30T00:00:54;13.40;99.90
21722;DHT22;11023;48.274;7.794;2023-08-30T00:03:20;13.40;99.90
21722;DHT22;11023;48.274;7.794;2023-08-30T00:05:45;13.40;99.90
21722;DHT22;11023;48.274;7.794;2023-08-30T00:08:11;13.50;99.90
21722;DHT22;11023;48.274;7.794;2023-08-30T00:10:38;13.50;99.90
21722;DHT22;11023;48.274;7.794;2023-08-30T00:13:04;13.50;99.90
21722;DHT22;11023;48.274;7.794;2023-08-30T00:15:30;13.50;99.90
21722;DHT22;11023;48.274;7.794;2023-08-30T00:17:56;13.50;99.90
21722;DHT22;11023;48.274;7.794;2023-08-30T00:20:21;13.40;99.90
21722;DHT22;11023;48.274;7.794;2023-08-30T00:22:48;13.40;99.90
21722;DHT22;11023;48.274;7.794;2023-08-30T00:25:16;13.50;99.90
21722;DHT22;11023;48.274;7.794;2023-08-30T00:27:42;13.50;99.90
21722;DHT22;11023;48.274;7.794;2023-08-30T00:30:08;13.50;99.90
21722;DHT22;11023;48.274;7.794;2023-08-30T00:32:35;13.50;99.90
21722;DHT22;11023;48.274;7.794;2023-08-30T00:35:01;13.40;99.90
21722;DHT22;11023;48.274;7.794;2023-08-30T00:37:27;13.40;99.90
21722;DHT22;11023;48.274;7.794;2023-08-30T00:39:52;13.40;99.90
21722;DHT22;11023;48.274;7.794;2023-08-30T00:42:18;13.40;99.90
21722;DHT22;11023;48.274;7.794;2023-08-30T00:44:43;13.30;99.90
21722;DHT22;11023;48.274;7.794;2023-08-30T00:47:09;13.40;99.90
21722;DHT22;11023;48.274;7.794;2023-08-30T00:49:35;13.30;99.90
21722;DHT22;11023;48.274;7.794;2023-08-30T00:52:05;13.30;99.90
21722;DHT22;11023;48.274;7.794;2023-08-30T00:54:32;13.30;99.90
21722;DHT22;11023;48.274;7.794;2023-08-30T00:56:57;13.30;99.90
21722;DHT22;11023;48.274;7.794;2023-08-30T00:59:25;13.30;99.90
21722;DHT22;11023;48.274;7.794;2023-08-30T01:01:51;13.30;99.90
21722;DHT22;11023;48.274;7.794;2023-08-30T01:04:19;13.30;99.90
21722;DHT22;11023;48.274;7.794;2023-08-30T01:06:45;13.30;99.90
21722;DHT22;11023;48.274;7.794;2023-08-30T01:09:11;13.30;99.90
21722;DHT22;11023;48.274;7.794;2023-08-30T01:11:48;13.40;99.90
21722;DHT22;11023;48.274;7.794;2023-08-30T01:14:29;13.40;99.90
21722;DHT22;11023;48.274;7.794;2023-08-30T01:16:56;13.40;99.90
21722;DHT22;11023;48.274;7.794;2023-08-30T01:20:00;13.40;99.90
21722;DHT22;11023;48.274;7.794;2023-08-30T01:22:38;13.40;99.90
21722;DHT22;11023;48.274;7.794;2023-08-30T01:25:30;13.50;99.90
21722;DHT22;11023;48.274;7.794;2023-08-30T01:28:01;13.40;99.90
21722;DHT22;11023;48.274;7.794;2023-08-30T01:30:27;13.40;99.90
21722;DHT22;11023;48.274;7.794;2023-08-30T01:32:54;13.40;99.90
21722;DHT22;11023;48.274;7.794;2023-08-30T01:35:23;13.50;99.90
21722;DHT22;11023;48.274;7.794;2023-08-30T01:37:49;13.50;99.90
21722;DHT22;11023;48.274;7.794;2023-08-30T01:40:17;13.50;99.90
21722;DHT22;11023;48.274;7.794;2023-08-30T01:42:44;13.50;99.90
21722;DHT22;11023;48.274;7.794;2023-08-30T01:45:13;13.50;99.90
21722;DHT22;11023;48.274;7.794;2023-08-30T01:47:41;13.50;99.90
21722;DHT22;11023;48.274;7.794;2023-08-30T01:50:08;13.50;99.90
21722;DHT22;11023;48.274;7.794;2023-08-30T01:52:35;13.60;99.90
21722;DHT22;11023;48.274;7.794;2023-08-30T01:55:02;13.50;99.90
21722;DHT22;11023;48.274;7.794;2023-08-30T01:57:28;13.50;99.90
21722;DHT22;11023;48.274;7.794;2023-08-30T01:59:56;13.50;99.90
21722;DHT22;11023;48.274;7.794;2023-08-30T02:02:22;13.50;99.90
21722;DHT22;11023;48.274;7.794;2023-08-30T02:04:47;13.50;99.90
21722;DHT22;11023;48.274;7.794;2023-08-30T02:07:22;13.50;99.90
21722;DHT22;11023;48.274;7.794;2023-08-30T02:09:57;13.50;99.90
21722;DHT22;11023;48.274;7.794;2023-08-30T02:12:25;13.50;99.90
21722;DHT22;11023;48.274;7.794;2023-08-30T02:14:53;13.50;99.90
21722;DHT22;11023;48.274;7.794;2023-08-30T02:17:19;13.50;99.90
21722;DHT22;11023;48.274;7.794;2023-08-30T02:19:45;13.50;99.90
21722;DHT22;11023;48.274;7.794;2023-08-30T02:22:12;13.40;99.90
21722;DHT22;11023;48.274;7.794;2023-08-30T02:24:38;13.40;99.90
21722;DHT22;11023;48.274;7.794;2023-08-30T02:27:04;13.40;99.90
21722;DHT22;11023;48.274;7.794;2023-08-30T02:29:30;13.40;99.90
21722;DHT22;11023;48.274;7.794;2023-08-30T02:31:56;13.40;99.90
21722;DHT22;11023;48.274;7.794;2023-08-30T02:34:22;13.40;99.90
21722;DHT22;11023;48.274;7.794;2023-08-30T02:36:47;13.40;99.90
21722;DHT22;11023;48.274;7.794;2023-08-30T02:39:16;13.40;99.90
21722;DHT22;11023;48.274;7.794;2023-08-30T02:41:42;13.40;99.90
21722;DHT22;11023;48.274;7.794;2023-08-30T02:44:13;13.40;99.90
21722;DHT22;11023;48.274;7.794;2023-08-30T02:46:39;13.40;99.90
21722;DHT22;11023;48.274;7.794;2023-08-30T02:49:05;13.40;99.90
21722;DHT22;11023;48.274;7.794;2023-08-30T02:51:31;13.40;99.90
21722;DHT22;11023;48.274;7.794;2023-08-30T02:53:57;13.40;99.90
21722;DHT22;11023;48.274;7.794;2023-08-30T02:56:23;13.40;99.90
21722;DHT22;11023;48.274;7.794;2023-08-30T02:58:48;13.40;99.90
21722;DHT22;11023;48.274;7.794;2023-08-30T03:01:14;13.40;99.90
21722;DHT22;11023;48.274;7.794;2023-08-30T03:03:40;13.40;99.90
21722;DHT22;11023;48.274;7.794;2023-08-30T03:06:05;13.40;99.90
21722;DHT22;11023;48.274;7.794;2023-08-30T03:08:31;13.30;99.90
21722;DHT22;11023;48.274;7.794;2023-08-30T03:11:11;13.30;99.90
21722;DHT22;11023;48.274;7.794;2023-08-30T03:13:36;13.30;99.90
21722;DHT22;11023;48.274;7.794;2023-08-30T03:16:10;13.30;99.90
21722;DHT22;11023;48.274;7.794;2023-08-30T03:18:36;13.30;99.90
21722;DHT22;11023;48.274;7.794;2023-08-30T03:21:02;13.30;99.90
21722;DHT22;11023;48.274;7.794;2023-08-30T03:23:28;13.30;99.90
21722;DHT22;11023;48.274;7.794;2023-08-30T03:25:53;13.40;99.90
21722;DHT22;11023;48.274;7.794;2023-08-30T03:28:19;13.30;99.90
21722;DHT22;11023;48.274;7.794;2023-08-30T03:30:45;13.30;99.90
21722;DHT22;11023;48.274;7.794;2023-08-30T03:33:10;13.30;99.90
21722;DHT22;11023;48.274;7.794;2023-08-30T03:35:36;13.30;99.90
21722;DHT22;11023;48.274;7.794;2023-08-30T03:38:02;13.30;99.90
21722;DHT22;11023;48.274;7.794;2023-08-30T03:40:27;13.40;99.90
21722;DHT22;11023;48.274;7.794;2023-08-30T03:42:55;13.30;99.90
21722;DHT22;11023;48.274;7.794;2023-08-30T03:45:20;13.40;99.90
21722;DHT22;11023;48.274;7.794;2023-08-30T03:47:47;13.30;99.90
21722;DHT22;11023;48.274;7.794;2023-08-30T03:50:14;13.40;99.90
21722;DHT22;11023;48.274;7.794;2023-08-30T03:52:40;13.40;99.90
21722;DHT22;11023;48.274;7.794;2023-08-30T03:55:06;13.40;99.90
21722;DHT22;11023;48.274;7.794;2023-08-30T03:57:32;13.40;99.90
21722;DHT22;11023;48.274;7.794;2023-08-30T03:59:58;13.50;99.90
21722;DHT22;11023;48.274;7.794;2023-08-30T04:02:24;13.50;99.90
21722;DHT22;11023;48.274;7.794;2023-08-30T04:04:49;13.50;99.90
21722;DHT22;11023;48.274;7.794;2023-08-30T04:07:15;13.40;99.90
21722;DHT22;11023;48.274;7.794;2023-08-30T04:09:41;13.40;99.90
21722;DHT22;11023;48.274;7.794;2023-08-30T04:12:07;13.40;99.90
21722;DHT22;11023;48.274;7.794;2023-08-30T04:14:33;13.40;99.90
21722;DHT22;11023;48.274;7.794;2023-08-30T04:16:59;13.40;99.90
21722;DHT22;11023;48.274;7.794;2023-08-30T04:19:25;13.40;99.90
21722;DHT22;11023;48.274;7.794;2023-08-30T04:21:51;13.40;99.90
21722;DHT22;11023;48.274;7.794;2023-08-30T04:24:17;13.40;99.90
21722;DHT22;11023;48.274;7.794;2023-08-30T04:26:43;13.40;99.90
21722;DHT22;11023;48.274;7.794;2023-08-30T04:29:09;13.40;99.90
21722;DHT22;11023;48.274;7.794;2023-08-30T04:31:34;13.40;99.90
21722;DHT22;11023;48.274;7.794;2023-08-30T04:34:00;13.40;99.90
21722;DHT22;11023;48.274;7.794;2023-08-30T04:36:26;13.40;99.90
21722;DHT22;11023;48.274;7.794;2023-08-30T04:38:52;13.40;99.90
21722;DHT22;11023;48.274;7.794;2023-08-30T04:41:19;13.40;99.90
21722;DHT22;11023;48.274;7.794;2023-08-30T04:43:44;13.40;99.90
21722;DHT22;11023;48.274;7.794;2023-08-30T04:46:10;13.40;99.90
21722;DHT22;11023;48.274;7.794;2023-08-30T04:48:37;13.40;99.90
21722;DHT22;11023;48.274;7.794;2023-08-30T04:51:04;13.50;99.90
21722;DHT22;11023;48.274;7.794;2023-08-30T04:53:30;13.40;99.90
21722;DHT22;11023;48.274;7.794;2023-08-30T04:55:56;13.50;99.90
21722;DHT22;11023;48.274;7.794;2023-08-30T04:58:22;13.50;99.90
21722;DHT22;11023;48.274;7.794;2023-08-30T05:00:48;13.50;99.90
21722;DHT22;11023;48.274;7.794;2023-08-30T05:03:13;13.40;99.90
21722;DHT22;11023;48.274;7.794;2023-08-30T05:05:39;13.50;99.90
21722;DHT22;11023;48.274;7.794;2023-08-30T05:08:05;13.50;99.90
21722;DHT22;11023;48.274;7.794;2023-08-30T05:10:32;13.50;99.90
21722;DHT22;11023;48.274;7.794;2023-08-30T05:12:57;13.50;99.90
21722;DHT22;11023;48.274;7.794;2023-08-30T05:15:23;13.50;99.90
21722;DHT22;11023;48.274;7.794;2023-08-30T05:17:49;13.50;99.90
21722;DHT22;11023;48.274;7.794;2023-08-30T05:20:14;13.50;99.90
21722;DHT22;11023;48.274;7.794;2023-08-30T05:22:40;13.60;99.90
21722;DHT22;11023;48.274;7.794;2023-08-30T05:25:06;13.60;99.90
21722;DHT22;11023;48.274;7.794;2023-08-30T05:27:32;13.70;99.90
21722;DHT22;11023;48.274;7.794;2023-08-30T05:29:58;13.70;99.90
21722;DHT22;11023;48.274;7.794;2023-08-30T05:32:25;13.70;99.90
21722;DHT22;11023;48.274;7.794;2023-08-30T05:34:51;13.70;99.90
21722;DHT22;11023;48.274;7.794;2023-08-30T05:37:16;13.80;99.90
21722;DHT22;11023;48.274;7.794;2023-08-30T05:39:42;13.80;99.90
21722;DHT22;11023;48.274;7.794;2023-08-30T05:42:08;13.80;99.90
21722;DHT22;11023;48.274;7.794;2023-08-30T05:44:33;13.90;99.90
21722;DHT22;11023;48.274;7.794;2023-08-30T05:46:59;13.90;99.90
21722;DHT22;11023;48.274;7.794;2023-08-30T05:49:24;13.90;99.90
21722;DHT22;11023;48.274;7.794;2023-08-30T05:51:50;13.90;99.90
21722;DHT22;11023;48.274;7.794;2023-08-30T05:54:16;14.00;99.90
21722;DHT22;11023;48.274;7.794;2023-08-30T05:56:41;14.00;99.90
21722;DHT22;11023;48.274;7.794;2023-08-30T05:59:07;14.00;99.90
21722;DHT22;11023;48.274;7.794;2023-08-30T06:01:33;14.00;99.90
21722;DHT22;11023;48.274;7.794;2023-08-30T06:03:58;14.00;99.90
21722;DHT22;11023;48.274;7.794;2023-08-30T06:06:24;14.10;99.90
21722;DHT22;11023;48.274;7.794;2023-08-30T06:08:50;14.10;99.90
21722;DHT22;11023;48.274;7.794;2023-08-30T06:11:15;14.00;99.90
21722;DHT22;11023;48.274;7.794;2023-08-30T06:13:41;14.10;99.90
21722;DHT22;11023;48.274;7.794;2023-08-30T06:16:07;14.20;99.90
21722;DHT22;11023;48.274;7.794;2023-08-30T06:18:33;14.20;99.90
21722;DHT22;11023;48.274;7.794;2023-08-30T06:20:58;14.30;99.90
21722;DHT22;11023;48.274;7.794;2023-08-30T06:23:24;14.40;99.90
21722;DHT22;11023;48.274;7.794;2023-08-30T06:25:56;14.40;99.90
21722;DHT22;11023;48.274;7.794;2023-08-30T06:28:22;14.40;99.90
21722;DHT22;11023;48.274;7.794;2023-08-30T06:30:48;14.40;99.90
21722;DHT22;11023;48.274;7.794;2023-08-30T06:33:14;14.40;99.90
21722;DHT22;11023;48.274;7.794;2023-08-30T06:35:40;14.50;99.90
21722;DHT22;11023;48.274;7.794;2023-08-30T06:38:06;14.50;99.90
21722;DHT22;11023;48.274;7.794;2023-08-30T06:40:33;14.60;99.90
21722;DHT22;11023;48.274;7.794;2023-08-30T06:42:58;14.60;99.90
21722;DHT22;11023;48.274;7.794;2023-08-30T06:45:25;14.70;99.90
21722;DHT22;11023;48.274;7.794;2023-08-30T06:47:50;14.70;99.90
21722;DHT22;11023;48.274;7.794;2023-08-30T06:50:18;14.70;99.90
21722;DHT22;11023;48.274;7.794;2023-08-30T06:52:43;14.70;99.90
21722;DHT22;11023;48.274;7.794;2023-08-30T06:55:09;14.80;99.90
21722;DHT22;11023;48.274;7.794;2023-08-30T06:57:39;14.90;99.90
21722;DHT22;11023;48.274;7.794;2023-08-30T07:00:05;15.00;99.90
21722;DHT22;11023;48.274;7.794;2023-08-30T07:02:37;15.00;99.90
21722;DHT22;11023;48.274;7.794;2023-08-30T07:05:02;15.10;99.90
21722;DHT22;11023;48.274;7.794;2023-08-30T07:07:30;15.20;99.90
21722;DHT22;11023;48.274;7.794;2023-08-30T07:09:56;15.20;99.90
21722;DHT22;11023;48.274;7.794;2023-08-30T07:12:22;15.30;99.90
21722;DHT22;11023;48.274;7.794;2023-08-30T07:14:47;15.30;99.90
21722;DHT22;11023;48.274;7.794;2023-08-30T07:17:13;15.40;99.90
21722;DHT22;11023;48.274;7.794;2023-08-30T07:19:39;15.50;99.90
21722;DHT22;11023;48.274;7.794;2023-08-30T07:22:04;15.60;99.90
21722;DHT22;11023;48.274;7.794;2023-08-30T07:24:30;15.70;99.90
21722;DHT22;11023;48.274;7.794;2023-08-30T07:26:56;15.80;99.90
21722;DHT22;11023;48.274;7.794;2023-08-30T07:29:30;15.80;99.90
21722;DHT22;11023;48.274;7.794;2023-08-30T07:31:56;15.90;99.90
21722;DHT22;11023;48.274;7.794;2023-08-30T07:34:22;16.00;99.90
21722;DHT22;11023;48.274;7.794;2023-08-30T07:36:47;16.10;99.90
21722;DHT22;11023;48.274;7.794;2023-08-30T07:39:13;16.10;99.90
21722;DHT22;11023;48.274;7.794;2023-08-30T07:41:39;16.20;99.90
21722;DHT22;11023;48.274;7.794;2023-08-30T07:44:05;16.30;99.90
21722;DHT22;11023;48.274;7.794;2023-08-30T07:46:30;16.50;99.90
21722;DHT22;11023;48.274;7.794;2023-08-30T07:48:56;16.50;99.90
21722;DHT22;11023;48.274;7.794;2023-08-30T07:51:22;16.60;99.90
21722;DHT22;11023;48.274;7.794;2023-08-30T07:53:47;16.70;99.90
21722;DHT22;11023;48.274;7.794;2023-08-30T07:56:13;16.70;99.90
21722;DHT22;11023;48.274;7.794;2023-08-30T07:58:40;16.80;99.90
21722;DHT22;11023;48.274;7.794;2023-08-30T08:01:06;16.90;99.90
21722;DHT22;11023;48.274;7.794;2023-08-30T08:03:32;16.90;99.90
21722;DHT22;11023;48.274;7.794;2023-08-30T08:05:59;16.90;99.90
21722;DHT22;11023;48.274;7.794;2023-08-30T08:08:25;17.00;99.90
21722;DHT22;11023;48.274;7.794;2023-08-30T08:10:51;16.90;99.90
21722;DHT22;11023;48.274;7.794;2023-08-30T08:13:17;17.00;99.90
21722;DHT22;11023;48.274;7.794;2023-08-30T08:15:43;16.90;99.90
21722;DHT22;11023;48.274;7.794;2023-08-30T08:18:09;16.90;99.90
21722;DHT22;11023;48.274;7.794;2023-08-30T08:20:35;16.90;99.90
21722;DHT22;11023;48.274;7.794;2023-08-30T08:23:02;17.00;99.90
21722;DHT22;11023;48.274;7.794;2023-08-30T08:25:28;17.00;99.90
21722;DHT22;11023;48.274;7.794;2023-08-30T08:27:54;17.00;99.90
21722;DHT22;11023;48.274;7.794;2023-08-30T08:30:20;17.10;99.90
21722;DHT22;11023;48.274;7.794;2023-08-30T08:32:46;17.10;99.90
21722;DHT22;11023;48.274;7.794;2023-08-30T08:35:15;17.20;99.90
21722;DHT22;11023;48.274;7.794;2023-08-30T08:37:40;17.30;99.90
21722;DHT22;11023;48.274;7.794;2023-08-30T08:40:07;17.40;99.90
21722;DHT22;11023;48.274;7.794;2023-08-30T08:42:36;17.40;99.90
21722;DHT22;11023;48.274;7.794;2023-08-30T08:45:03;17.50;99.90
21722;DHT22;11023;48.274;7.794;2023-08-30T08:47:32;17.60;99.90
21722;DHT22;11023;48.274;7.794;2023-08-30T08:49:59;17.60;99.90
21722;DHT22;11023;48.274;7.794;2023-08-30T08:52:26;17.70;99.90
21722;DHT22;11023;48.274;7.794;2023-08-30T08:54:52;17.80;99.90
21722;DHT22;11023;48.274;7.794;2023-08-30T08:57:19;17.80;99.90
21722;DHT22;11023;48.274;7.794;2023-08-30T08:59:45;17.90;99.90
21722;DHT22;11023;48.274;7.794;2023-08-30T09:02:13;18.00;99.90
21722;DHT22;11023;48.274;7.794;2023-08-30T09:04:39;18.00;99.90
21722;DHT22;11023;48.274;7.794;2023-08-30T09:07:05;18.10;99.90
21722;DHT22;11023;48.274;7.794;2023-08-30T09:09:30;18.10;99.90
21722;DHT22;11023;48.274;7.794;2023-08-30T09:11:56;18.10;99.90
21722;DHT22;11023;48.274;7.794;2023-08-30T09:14:22;18.20;99.90
21722;DHT22;11023;48.274;7.794;2023-08-30T09:16:59;18.10;99.90
21722;DHT22;11023;48.274;7.794;2023-08-30T09:19:26;18.30;99.90
21722;DHT22;11023;48.274;7.794;2023-08-30T09:21:56;18.50;99.90
21722;DHT22;11023;48.274;7.794;2023-08-30T09:24:22;18.50;99.90
21722;DHT22;11023;48.274;7.794;2023-08-30T09:26:49;18.70;99.90
21722;DHT22;11023;48.274;7.794;2023-08-30T09:29:17;18.80;99.90
21722;DHT22;11023;48.274;7.794;2023-08-30T09:31:43;19.00;99.90
21722;DHT22;11023;48.274;7.794;2023-08-30T09:34:09;19.20;99.90
21722;DHT22;11023;48.274;7.794;2023-08-30T09:36:38;19.30;99.90
21722;DHT22;11023;48.274;7.794;2023-08-30T09:39:13;19.50;99.90
21722;DHT22;11023;48.274;7.794;2023-08-30T09:41:47;19.70;99.90
21722;DHT22;11023;48.274;7.794;2023-08-30T09:44:14;19.90;99.90
21722;DHT22;11023;48.274;7.794;2023-08-30T09:46:44;20.00;99.90
21722;DHT22;11023;48.274;7.794;2023-08-30T09:49:11;20.10;99.90
21722;DHT22;11023;48.274;7.794;2023-08-30T09:51:39;20.10;99.90
21722;DHT22;11023;48.274;7.794;2023-08-30T09:54:14;20.20;99.90
21722;DHT22;11023;48.274;7.794;2023-08-30T09:56:41;20.30;99.90
21722;DHT22;11023;48.274;7.794;2023-08-30T09:59:08;20.40;99.90
21722;DHT22;11023;48.274;7.794;2023-08-30T10:01:36;20.40;99.90
21722;DHT22;11023;48.274;7.794;2023-08-30T10:04:02;20.50;99.90
21722;DHT22;11023;48.274;7.794;2023-08-30T10:06:30;20.50;99.90
21722;DHT22;11023;48.274;7.794;2023-08-30T10:08:56;20.60;99.90
21722;DHT22;11023;48.274;7.794;2023-08-30T10:11:23;20.60;99.90
21722;DHT22;11023;48.274;7.794;2023-08-30T10:13:51;20.60;99.90
21722;DHT22;11023;48.274;7.794;2023-08-30T10:16:24;20.70;99.90
21722;DHT22;11023;48.274;7.794;2023-08-30T10:18:54;20.80;99.90
21722;DHT22;11023;48.274;7.794;2023-08-30T10:21:22;20.80;99.90
21722;DHT22;11023;48.274;7.794;2023-08-30T10:23:50;20.80;99.90
21722;DHT22;11023;48.274;7.794;2023-08-30T10:26:17;21.00;99.90
21722;DHT22;11023;48.274;7.794;2023-08-30T10:28:44;21.20;99.90
21722;DHT22;11023;48.274;7.794;2023-08-30T10:31:10;21.30;99.90
21722;DHT22;11023;48.274;7.794;2023-08-30T10:33:54;21.50;99.90
21722;DHT22;11023;48.274;7.794;2023-08-30T10:36:26;21.60;99.90
21722;DHT22;11023;48.274;7.794;2023-08-30T10:38:53;21.70;99.90
21722;DHT22;11023;48.274;7.794;2023-08-30T10:41:24;21.80;99.90
21722;DHT22;11023;48.274;7.794;2023-08-30T10:43:55;22.00;99.90
21722;DHT22;11023;48.274;7.794;2023-08-30T10:46:31;22.00;99.90
21722;DHT22;11023;48.274;7.794;2023-08-30T10:49:08;22.10;99.90
21722;DHT22;11023;48.274;7.794;2023-08-30T10:51:38;22.30;99.90
21722;DHT22;11023;48.274;7.794;2023-08-30T10:54:16;22.50;99.90
21722;DHT22;11023;48.274;7.794;2023-08-30T10:56:54;22.70;99.90
21722;DHT22;11023;48.274;7.794;2023-08-30T10:59:22;22.80;99.90
21722;DHT22;11023;48.274;7.794;2023-08-30T11:01:49;22.90;99.90
21722;DHT22;11023;48.274;7.794;2023-08-30T11:04:18;22.90;99.90
21722;DHT22;11023;48.274;7.794;2023-08-30T11:06:48;22.90;99.90
21722;DHT22;11023;48.274;7.794;2023-08-30T11:09:16;22.80;99.90
21722;DHT22;11023;48.274;7.794;2023-08-30T11:11:45;22.90;99.90
21722;DHT22;11023;48.274;7.794;2023-08-30T11:14:12;22.90;99.90
21722;DHT22;11023;48.274;7.794;2023-08-30T11:16:38;22.90;99.90
21722;DHT22;11023;48.274;7.794;2023-08-30T11:19:05;22.90;99.90
21722;DHT22;11023;48.274;7.794;2023-08-30T11:21:34;23.00;99.90
21722;DHT22;11023;48.274;7.794;2023-08-30T11:24:00;22.90;99.90
21722;DHT22;11023;48.274;7.794;2023-08-30T11:26:26;23.00;99.90
21722;DHT22;11023;48.274;7.794;2023-08-30T11:28:51;22.80;99.90
21722;DHT22;11023;48.274;7.794;2023-08-30T11:31:27;22.90;99.90
21722;DHT22;11023;48.274;7.794;2023-08-30T11:33:57;23.00;99.90
21722;DHT22;11023;48.274;7.794;2023-08-30T11:36:27;23.10;99.90
21722;DHT22;11023;48.274;7.794;2023-08-30T11:38:53;23.00;99.90
21722;DHT22;11023;48.274;7.794;2023-08-30T11:41:23;22.90;99.90
21722;DHT22;11023;48.274;7.794;2023-08-30T11:43:50;22.70;99.90
21722;DHT22;11023;48.274;7.794;2023-08-30T11:46:25;22.50;99.90
21722;DHT22;11023;48.274;7.794;2023-08-30T11:48:54;22.40;99.90
21722;DHT22;11023;48.274;7.794;2023-08-30T11:53:48;22.20;99.90
21722;DHT22;11023;48.274;7.794;2023-08-30T11:56:15;22.30;99.90
21722;DHT22;11023;48.274;7.794;2023-08-30T11:58:42;22.50;99.90
21722;DHT22;11023;48.274;7.794;2023-08-30T12:01:09;22.80;99.90
21722;DHT22;11023;48.274;7.794;2023-08-30T12:03:35;22.90;99.90
21722;DHT22;11023;48.274;7.794;2023-08-30T12:06:02;23.20;99.90
21722;DHT22;11023;48.274;7.794;2023-08-30T12:08:30;23.40;99.90
21722;DHT22;11023;48.274;7.794;2023-08-30T12:10:57;23.70;99.90
21722;DHT22;11023;48.274;7.794;2023-08-30T12:13:27;23.80;99.90
21722;DHT22;11023;48.274;7.794;2023-08-30T12:15:54;24.10;99.90
21722;DHT22;11023;48.274;7.794;2023-08-30T12:18:28;24.30;99.90
21722;DHT22;11023;48.274;7.794;2023-08-30T12:20:55;24.50;99.90
21722;DHT22;11023;48.274;7.794;2023-08-30T12:23:30;24.60;99.90
21722;DHT22;11023;48.274;7.794;2023-08-30T12:28:25;24.70;99.90
21722;DHT22;11023;48.274;7.794;2023-08-30T12:30:51;24.50;99.90
21722;DHT22;11023;48.274;7.794;2023-08-30T12:33:17;24.30;99.90
21722;DHT22;11023;48.274;7.794;2023-08-30T12:35:43;24.10;99.90
21722;DHT22;11023;48.274;7.794;2023-08-30T12:38:09;23.70;99.90
21722;DHT22;11023;48.274;7.794;2023-08-30T12:40:36;23.70;99.90
21722;DHT22;11023;48.274;7.794;2023-08-30T12:43:01;24.00;99.90
21722;DHT22;11023;48.274;7.794;2023-08-30T12:45:27;24.20;99.90
21722;DHT22;11023;48.274;7.794;2023-08-30T12:47:53;24.60;99.90
21722;DHT22;11023;48.274;7.794;2023-08-30T12:50:18;24.70;99.90
21722;DHT22;11023;48.274;7.794;2023-08-30T12:52:44;24.80;99.90
21722;DHT22;11023;48.274;7.794;2023-08-30T12:55:10;24.90;99.90
21722;DHT22;11023;48.274;7.794;2023-08-30T12:57:36;25.00;99.90
21722;DHT22;11023;48.274;7.794;2023-08-30T13:00:02;25.20;99.90
21722;DHT22;11023;48.274;7.794;2023-08-30T13:02:28;25.40;99.90
21722;DHT22;11023;48.274;7.794;2023-08-30T13:04:54;25.50;99.90
21722;DHT22;11023;48.274;7.794;2023-08-30T13:07:19;25.60;99.90
21722;DHT22;11023;48.274;7.794;2023-08-30T13:09:45;25.70;99.90
21722;DHT22;11023;48.274;7.794;2023-08-30T13:12:11;25.70;99.90
21722;DHT22;11023;48.274;7.794;2023-08-30T13:14:36;25.60;99.90
21722;DHT22;11023;48.274;7.794;2023-08-30T13:17:02;25.50;99.90
21722;DHT22;11023;48.274;7.794;2023-08-30T13:19:28;25.40;99.90
21722;DHT22;11023;48.274;7.794;2023-08-30T13:21:54;25.10;99.90
21722;DHT22;11023;48.274;7.794;2023-08-30T13:24:20;25.10;99.90
21722;DHT22;11023;48.274;7.794;2023-08-30T13:26:45;25.20;99.90
21722;DHT22;11023;48.274;7.794;2023-08-30T13:29:11;25.30;99.90
21722;DHT22;11023;48.274;7.794;2023-08-30T13:31:37;25.50;99.90
21722;DHT22;11023;48.274;7.794;2023-08-30T13:34:03;25.50;99.90
21722;DHT22;11023;48.274;7.794;2023-08-30T13:36:29;25.60;99.90
21722;DHT22;11023;48.274;7.794;2023-08-30T13:38:55;25.70;99.90
21722;DHT22;11023;48.274;7.794;2023-08-30T13:41:20;25.80;99.90
21722;DHT22;11023;48.274;7.794;2023-08-30T13:43:46;25.90;99.90
21722;DHT22;11023;48.274;7.794;2023-08-30T13:46:12;26.10;99.90
21722;DHT22;11023;48.274;7.794;2023-08-30T13:48:37;26.20;99.90
21722;DHT22;11023;48.274;7.794;2023-08-30T13:51:03;26.10;99.90
21722;DHT22;11023;48.274;7.794;2023-08-30T13:53:29;26.10;99.90
21722;DHT22;11023;48.274;7.794;2023-08-30T13:55:54;25.80;99.90
21722;DHT22;11023;48.274;7.794;2023-08-30T13:58:20;25.70;99.90
21722;DHT22;11023;48.274;7.794;2023-08-30T14:00:45;25.70;99.90
21722;DHT22;11023;48.274;7.794;2023-08-30T14:03:11;25.50;99.90
21722;DHT22;11023;48.274;7.794;2023-08-30T14:05:37;25.70;99.90
21722;DHT22;11023;48.274;7.794;2023-08-30T14:08:06;25.70;99.90
21722;DHT22;11023;48.274;7.794;2023-08-30T14:10:32;25.60;99.90
21722;DHT22;11023;48.274;7.794;2023-08-30T14:12:58;25.80;99.90
21722;DHT22;11023;48.274;7.794;2023-08-30T14:15:24;25.80;99.90
21722;DHT22;11023;48.274;7.794;2023-08-30T14:17:49;25.90;99.90
21722;DHT22;11023;48.274;7.794;2023-08-30T14:20:15;26.00;99.90
21722;DHT22;11023;48.274;7.794;2023-08-30T14:22:40;25.90;99.90
21722;DHT22;11023;48.274;7.794;2023-08-30T14:25:06;25.60;99.90
21722;DHT22;11023;48.274;7.794;2023-08-30T14:27:32;25.60;99.90
21722;DHT22;11023;48.274;7.794;2023-08-30T14:29:57;25.40;99.90
21722;DHT22;11023;48.274;7.794;2023-08-30T14:32:25;25.40;99.90
21722;DHT22;11023;48.274;7.794;2023-08-30T14:34:51;25.70;99.90
21722;DHT22;11023;48.274;7.794;2023-08-30T14:37:18;25.90;99.90
21722;DHT22;11023;48.274;7.794;2023-08-30T14:39:43;26.20;99.90
21722;DHT22;11023;48.274;7.794;2023-08-30T14:42:09;26.40;99.90
21722;DHT22;11023;48.274;7.794;2023-08-30T14:44:34;26.70;99.90
21722;DHT22;11023;48.274;7.794;2023-08-30T14:47:00;26.80;99.90
21722;DHT22;11023;48.274;7.794;2023-08-30T14:49:26;26.80;99.90
21722;DHT22;11023;48.274;7.794;2023-08-30T14:51:51;26.50;99.90
21722;DHT22;11023;48.274;7.794;2023-08-30T14:54:17;26.40;99.90
21722;DHT22;11023;48.274;7.794;2023-08-30T14:56:42;26.50;99.90
21722;DHT22;11023;48.274;7.794;2023-08-30T14:59:09;26.50;99.90
21722;DHT22;11023;48.274;7.794;2023-08-30T15:01:35;26.80;99.90
21722;DHT22;11023;48.274;7.794;2023-08-30T15:04:00;27.10;99.90
21722;DHT22;11023;48.274;7.794;2023-08-30T15:06:26;27.30;99.90
21722;DHT22;11023;48.274;7.794;2023-08-30T15:08:51;27.40;99.90
21722;DHT22;11023;48.274;7.794;2023-08-30T15:11:17;27.60;99.90
21722;DHT22;11023;48.274;7.794;2023-08-30T15:13:43;27.80;99.90
21722;DHT22;11023;48.274;7.794;2023-08-30T15:16:09;27.90;99.90
21722;DHT22;11023;48.274;7.794;2023-08-30T15:18:34;27.70;99.90
21722;DHT22;11023;48.274;7.794;2023-08-30T15:21:01;27.60;99.90
21722;DHT22;11023;48.274;7.794;2023-08-30T15:23:27;27.30;99.90
21722;DHT22;11023;48.274;7.794;2023-08-30T15:25:52;26.90;99.90
21722;DHT22;11023;48.274;7.794;2023-08-30T15:28:18;26.70;99.90
21722;DHT22;11023;48.274;7.794;2023-08-30T15:30:45;26.80;99.90
21722;DHT22;11023;48.274;7.794;2023-08-30T15:33:11;26.60;99.90